sensor_id;sensor_type;location;lat;lon;timestamp;P1;durP1;ratioP1;P2;durP2;ratioP2
75090;SDS011;63674;48.048;8.306;2022-12-07T00:02:02;19.88;;;7.25;;
75090;SDS011;63674;48.048;8.306;2022-12-07T00:04:31;18.65;;;6.20;;
75090;SDS011;63674;48.048;8.306;2022-12-07T00:07:00;18.35;;;6.70;;
75090;SDS011;63674;48.048;8.306;2022-12-07T00:09:29;18.40;;;6.35;;
75090;SDS011;63674;48.048;8.306;2022-12-07T00:11:58;16.27;;;6.38;;
75090;SDS011;63674;48.048;8.306;2022-12-07T00:14:27;27.90;;;9.70;;
75090;SDS011;63674;48.048;8.306;2022-12-07T00:16:57;26.30;;;9.00;;
75090;SDS011;63674;48.048;8.306;2022-12-07T00:19:26;17.50;;;6.50;;
75090;SDS011;63674;48.048;8.306;2022-12-07T00:21:55;18.02;;;5.82;;
75090;SDS011;63674;48.048;8.306;2022-12-07T00:24:24;12.25;;;4.50;;
75090;SDS011;63674;48.048;8.306;2022-12-07T00:26:53;12.95;;;4.40;;
75090;SDS011;63674;48.048;8.306;2022-12-07T00:29:22;11.18;;;4.50;;
75090;SDS011;63674;48.048;8.306;2022-12-07T00:31:51;12.25;;;4.22;;
75090;SDS011;63674;48.048;8.306;2022-12-07T00:34:21;10.85;;;4.20;;
75090;SDS011;63674;48.048;8.306;2022-12-07T00:36:50;10.45;;;3.83;;
75090;SDS011;63674;48.048;8.306;2022-12-07T00:39:18;11.20;;;4.65;;
75090;SDS011;63674;48.048;8.306;2022-12-07T00:41:47;11.98;;;4.88;;
75090;SDS011;63674;48.048;8.306;2022-12-07T00:44:16;12.38;;;4.60;;
75090;SDS011;63674;48.048;8.306;2022-12-07T00:46:44;10.43;;;4.05;;
75090;SDS011;63674;48.048;8.306;2022-12-07T00:49:13;10.65;;;4.20;;
75090;SDS011;63674;48.048;8.306;2022-12-07T00:51:43;11.90;;;4.75;;
75090;SDS011;63674;48.048;8.306;2022-12-07T00:54:12;11.75;;;4.57;;
75090;SDS011;63674;48.048;8.306;2022-12-07T00:56:41;11.68;;;4.40;;
75090;SDS011;63674;48.048;8.306;2022-12-07T00:59:10;12.80;;;4.45;;
75090;SDS011;63674;48.048;8.306;2022-12-07T01:01:42;11.30;;;4.00;;
75090;SDS011;63674;48.048;8.306;2022-12-07T01:04:11;13.48;;;4.50;;
75090;SDS011;63674;48.048;8.306;2022-12-07T01:06:40;12.32;;;4.38;;
75090;SDS011;63674;48.048;8.306;2022-12-07T01:09:10;12.40;;;4.70;;
75090;SDS011;63674;48.048;8.306;2022-12-07T01:11:38;11.93;;;4.35;;
75090;SDS011;63674;48.048;8.306;2022-12-07T01:14:08;12.52;;;4.45;;
75090;SDS011;63674;48.048;8.306;2022-12-07T01:16:38;12.23;;;4.63;;
75090;SDS011;63674;48.048;8.306;2022-12-07T01:19:06;11.18;;;4.22;;
75090;SDS011;63674;48.048;8.306;2022-12-07T01:21:35;13.30;;;4.57;;
75090;SDS011;63674;48.048;8.306;2022-12-07T01:24:07;11.98;;;4.40;;
75090;SDS011;63674;48.048;8.306;2022-12-07T01:26:39;14.35;;;5.13;;
75090;SDS011;63674;48.048;8.306;2022-12-07T01:29:08;12.48;;;4.85;;
75090;SDS011;63674;48.048;8.306;2022-12-07T01:31:37;13.20;;;4.93;;
75090;SDS011;63674;48.048;8.306;2022-12-07T01:34:05;12.10;;;4.53;;
75090;SDS011;63674;48.048;8.306;2022-12-07T01:36:34;12.15;;;4.88;;
75090;SDS011;63674;48.048;8.306;2022-12-07T01:39:05;13.68;;;4.47;;
75090;SDS011;63674;48.048;8.306;2022-12-07T01:41:38;12.38;;;4.88;;
75090;SDS011;63674;48.048;8.306;2022-12-07T01:44:12;11.35;;;4.55;;
75090;SDS011;63674;48.048;8.306;2022-12-07T01:46:44;12.52;;;5.13;;
75090;SDS011;63674;48.048;8.306;2022-12-07T01:52:09;11.50;;;4.70;;
75090;SDS011;63674;48.048;8.306;2022-12-07T01:54:44;10.18;;;4.10;;
75090;SDS011;63674;48.048;8.306;2022-12-07T01:57:15;9.60;;;4.13;;
75090;SDS011;63674;48.048;8.306;2022-12-07T01:59:45;8.95;;;3.75;;
75090;SDS011;63674;48.048;8.306;2022-12-07T02:02:17;9.65;;;3.75;;
75090;SDS011;63674;48.048;8.306;2022-12-07T02:04:49;10.25;;;4.05;;
75090;SDS011;63674;48.048;8.306;2022-12-07T02:07:20;10.50;;;4.25;;
75090;SDS011;63674;48.048;8.306;2022-12-07T02:09:50;11.13;;;4.57;;
75090;SDS011;63674;48.048;8.306;2022-12-07T02:12:20;9.65;;;4.05;;
75090;SDS011;63674;48.048;8.306;2022-12-07T02:14:50;12.70;;;4.63;;
75090;SDS011;63674;48.048;8.306;2022-12-07T02:17:20;10.30;;;4.10;;
75090;SDS011;63674;48.048;8.306;2022-12-07T02:20:02;10.88;;;4.43;;
75090;SDS011;63674;48.048;8.306;2022-12-07T02:22:51;11.50;;;4.60;;
75090;SDS011;63674;48.048;8.306;2022-12-07T02:26:01;10.48;;;4.05;;
75090;SDS011;63674;48.048;8.306;2022-12-07T02:28:54;11.52;;;4.85;;
75090;SDS011;63674;48.048;8.306;2022-12-07T02:31:36;11.82;;;4.90;;
75090;SDS011;63674;48.048;8.306;2022-12-07T02:34:12;9.75;;;4.00;;
75090;SDS011;63674;48.048;8.306;2022-12-07T02:36:52;10.82;;;3.92;;
75090;SDS011;63674;48.048;8.306;2022-12-07T02:39:28;10.15;;;4.07;;
75090;SDS011;63674;48.048;8.306;2022-12-07T02:42:07;9.48;;;3.78;;
75090;SDS011;63674;48.048;8.306;2022-12-07T02:44:44;10.15;;;3.85;;
75090;SDS011;63674;48.048;8.306;2022-12-07T02:47:14;12.07;;;3.63;;
75090;SDS011;63674;48.048;8.306;2022-12-07T02:49:45;8.45;;;3.25;;
75090;SDS011;63674;48.048;8.306;2022-12-07T02:52:14;6.38;;;2.38;;
75090;SDS011;63674;48.048;8.306;2022-12-07T02:54:43;5.13;;;1.85;;
75090;SDS011;63674;48.048;8.306;2022-12-07T02:57:15;6.60;;;2.17;;
75090;SDS011;63674;48.048;8.306;2022-12-07T03:00:03;6.15;;;2.33;;
75090;SDS011;63674;48.048;8.306;2022-12-07T03:02:38;6.35;;;2.33;;
75090;SDS011;63674;48.048;8.306;2022-12-07T03:08:19;7.28;;;3.20;;
75090;SDS011;63674;48.048;8.306;2022-12-07T03:10:56;8.27;;;2.63;;
75090;SDS011;63674;48.048;8.306;2022-12-07T03:13:30;6.97;;;2.70;;
75090;SDS011;63674;48.048;8.306;2022-12-07T03:16:11;7.10;;;2.55;;
75090;SDS011;63674;48.048;8.306;2022-12-07T03:18:44;7.32;;;2.92;;
75090;SDS011;63674;48.048;8.306;2022-12-07T03:21:17;7.05;;;2.80;;
75090;SDS011;63674;48.048;8.306;2022-12-07T03:23:52;7.57;;;3.00;;
75090;SDS011;63674;48.048;8.306;2022-12-07T03:26:26;7.18;;;2.90;;
75090;SDS011;63674;48.048;8.306;2022-12-07T03:29:04;7.25;;;2.25;;
75090;SDS011;63674;48.048;8.306;2022-12-07T03:31:39;5.55;;;1.90;;
75090;SDS011;63674;48.048;8.306;2022-12-07T03:34:12;6.20;;;2.40;;
75090;SDS011;63674;48.048;8.306;2022-12-07T03:36:47;6.07;;;2.40;;
75090;SDS011;63674;48.048;8.306;2022-12-07T03:39:22;6.72;;;2.50;;
75090;SDS011;63674;48.048;8.306;2022-12-07T03:41:54;6.30;;;2.13;;
75090;SDS011;63674;48.048;8.306;2022-12-07T03:44:24;6.10;;;2.50;;
75090;SDS011;63674;48.048;8.306;2022-12-07T03:46:57;5.63;;;2.17;;
75090;SDS011;63674;48.048;8.306;2022-12-07T03:49:33;6.32;;;1.90;;
75090;SDS011;63674;48.048;8.306;2022-12-07T03:52:09;6.43;;;2.20;;
75090;SDS011;63674;48.048;8.306;2022-12-07T03:54:47;5.28;;;1.70;;
75090;SDS011;63674;48.048;8.306;2022-12-07T03:57:21;7.10;;;1.95;;
75090;SDS011;63674;48.048;8.306;2022-12-07T03:59:53;5.28;;;1.80;;
75090;SDS011;63674;48.048;8.306;2022-12-07T04:02:25;5.63;;;1.50;;
75090;SDS011;63674;48.048;8.306;2022-12-07T04:04:56;5.82;;;2.10;;
75090;SDS011;63674;48.048;8.306;2022-12-07T04:07:24;6.50;;;2.05;;
75090;SDS011;63674;48.048;8.306;2022-12-07T04:09:53;5.82;;;1.80;;
75090;SDS011;63674;48.048;8.306;2022-12-07T04:12:22;5.82;;;2.20;;
75090;SDS011;63674;48.048;8.306;2022-12-07T04:14:51;5.25;;;1.70;;
75090;SDS011;63674;48.048;8.306;2022-12-07T04:17:20;6.40;;;2.10;;
75090;SDS011;63674;48.048;8.306;2022-12-07T04:19:50;5.15;;;1.48;;
75090;SDS011;63674;48.048;8.306;2022-12-07T04:22:18;5.05;;;1.90;;
75090;SDS011;63674;48.048;8.306;2022-12-07T04:24:47;4.93;;;1.60;;
75090;SDS011;63674;48.048;8.306;2022-12-07T04:27:15;4.78;;;1.50;;
75090;SDS011;63674;48.048;8.306;2022-12-07T04:29:44;5.03;;;1.80;;
75090;SDS011;63674;48.048;8.306;2022-12-07T04:32:13;5.00;;;1.90;;
75090;SDS011;63674;48.048;8.306;2022-12-07T04:34:42;5.50;;;1.90;;
75090;SDS011;63674;48.048;8.306;2022-12-07T04:37:12;5.70;;;2.00;;
75090;SDS011;63674;48.048;8.306;2022-12-07T04:39:40;6.32;;;2.17;;
75090;SDS011;63674;48.048;8.306;2022-12-07T04:42:11;5.03;;;2.08;;
75090;SDS011;63674;48.048;8.306;2022-12-07T04:44:40;5.95;;;2.30;;
75090;SDS011;63674;48.048;8.306;2022-12-07T04:47:08;5.68;;;2.05;;
75090;SDS011;63674;48.048;8.306;2022-12-07T04:49:37;6.22;;;2.38;;
75090;SDS011;63674;48.048;8.306;2022-12-07T04:52:06;5.65;;;2.00;;
75090;SDS011;63674;48.048;8.306;2022-12-07T04:54:36;5.70;;;1.90;;
75090;SDS011;63674;48.048;8.306;2022-12-07T04:57:05;4.90;;;1.60;;
75090;SDS011;63674;48.048;8.306;2022-12-07T04:59:34;5.85;;;2.05;;
75090;SDS011;63674;48.048;8.306;2022-12-07T05:02:10;9.25;;;3.08;;
75090;SDS011;63674;48.048;8.306;2022-12-07T05:04:39;8.23;;;2.67;;
75090;SDS011;63674;48.048;8.306;2022-12-07T05:07:08;15.48;;;4.20;;
75090;SDS011;63674;48.048;8.306;2022-12-07T05:09:38;31.08;;;13.35;;
75090;SDS011;63674;48.048;8.306;2022-12-07T05:12:07;13.40;;;5.30;;
75090;SDS011;63674;48.048;8.306;2022-12-07T05:14:35;12.20;;;5.25;;
75090;SDS011;63674;48.048;8.306;2022-12-07T05:17:04;7.95;;;3.13;;
75090;SDS011;63674;48.048;8.306;2022-12-07T05:19:33;6.55;;;2.58;;
75090;SDS011;63674;48.048;8.306;2022-12-07T05:22:01;5.40;;;1.85;;
75090;SDS011;63674;48.048;8.306;2022-12-07T05:24:30;5.70;;;2.10;;
75090;SDS011;63674;48.048;8.306;2022-12-07T05:27:00;6.25;;;2.00;;
75090;SDS011;63674;48.048;8.306;2022-12-07T05:29:29;5.63;;;1.88;;
75090;SDS011;63674;48.048;8.306;2022-12-07T05:31:58;5.32;;;1.92;;
75090;SDS011;63674;48.048;8.306;2022-12-07T05:34:27;5.07;;;1.98;;
75090;SDS011;63674;48.048;8.306;2022-12-07T05:36:55;6.53;;;2.55;;
75090;SDS011;63674;48.048;8.306;2022-12-07T05:39:24;5.18;;;1.90;;
75090;SDS011;63674;48.048;8.306;2022-12-07T05:41:53;6.10;;;2.30;;
75090;SDS011;63674;48.048;8.306;2022-12-07T05:44:42;5.40;;;1.90;;
75090;SDS011;63674;48.048;8.306;2022-12-07T05:47:13;6.13;;;1.90;;
75090;SDS011;63674;48.048;8.306;2022-12-07T05:49:43;7.20;;;2.53;;
75090;SDS011;63674;48.048;8.306;2022-12-07T05:52:12;5.55;;;2.13;;
75090;SDS011;63674;48.048;8.306;2022-12-07T05:54:41;6.20;;;2.25;;
75090;SDS011;63674;48.048;8.306;2022-12-07T05:57:10;5.68;;;1.90;;
75090;SDS011;63674;48.048;8.306;2022-12-07T05:59:39;6.32;;;2.28;;
75090;SDS011;63674;48.048;8.306;2022-12-07T06:02:09;5.45;;;1.88;;
75090;SDS011;63674;48.048;8.306;2022-12-07T06:04:41;6.38;;;2.33;;
75090;SDS011;63674;48.048;8.306;2022-12-07T06:07:12;7.47;;;2.63;;
75090;SDS011;63674;48.048;8.306;2022-12-07T06:09:43;7.32;;;2.22;;
75090;SDS011;63674;48.048;8.306;2022-12-07T06:12:12;5.82;;;2.08;;
75090;SDS011;63674;48.048;8.306;2022-12-07T06:14:59;6.55;;;2.30;;
75090;SDS011;63674;48.048;8.306;2022-12-07T06:17:29;6.13;;;2.10;;
75090;SDS011;63674;48.048;8.306;2022-12-07T06:19:58;5.53;;;1.88;;
75090;SDS011;63674;48.048;8.306;2022-12-07T06:22:27;6.90;;;2.10;;
75090;SDS011;63674;48.048;8.306;2022-12-07T06:24:56;6.50;;;2.05;;
75090;SDS011;63674;48.048;8.306;2022-12-07T06:27:31;6.13;;;2.22;;
75090;SDS011;63674;48.048;8.306;2022-12-07T06:30:00;6.95;;;1.90;;
75090;SDS011;63674;48.048;8.306;2022-12-07T06:32:35;7.25;;;2.10;;
75090;SDS011;63674;48.048;8.306;2022-12-07T06:35:04;6.03;;;1.95;;
75090;SDS011;63674;48.048;8.306;2022-12-07T06:37:34;5.20;;;1.65;;
75090;SDS011;63674;48.048;8.306;2022-12-07T06:40:03;5.68;;;2.15;;
75090;SDS011;63674;48.048;8.306;2022-12-07T06:42:34;6.85;;;2.20;;
75090;SDS011;63674;48.048;8.306;2022-12-07T06:45:02;5.45;;;2.05;;
75090;SDS011;63674;48.048;8.306;2022-12-07T06:47:32;6.18;;;2.10;;
75090;SDS011;63674;48.048;8.306;2022-12-07T06:50:10;7.00;;;2.72;;
75090;SDS011;63674;48.048;8.306;2022-12-07T06:52:38;7.22;;;2.00;;
75090;SDS011;63674;48.048;8.306;2022-12-07T06:55:07;5.68;;;1.90;;
75090;SDS011;63674;48.048;8.306;2022-12-07T06:57:36;6.05;;;1.88;;
75090;SDS011;63674;48.048;8.306;2022-12-07T07:00:06;6.80;;;2.20;;
75090;SDS011;63674;48.048;8.306;2022-12-07T07:02:37;6.15;;;2.15;;
75090;SDS011;63674;48.048;8.306;2022-12-07T07:05:06;7.20;;;2.05;;
75090;SDS011;63674;48.048;8.306;2022-12-07T07:07:35;6.30;;;2.08;;
75090;SDS011;63674;48.048;8.306;2022-12-07T07:10:24;6.97;;;2.13;;
75090;SDS011;63674;48.048;8.306;2022-12-07T07:12:53;6.20;;;2.10;;
75090;SDS011;63674;48.048;8.306;2022-12-07T07:15:23;7.55;;;1.98;;
75090;SDS011;63674;48.048;8.306;2022-12-07T07:17:53;7.03;;;2.00;;
75090;SDS011;63674;48.048;8.306;2022-12-07T07:20:22;6.63;;;2.25;;
75090;SDS011;63674;48.048;8.306;2022-12-07T07:22:53;6.20;;;1.98;;
75090;SDS011;63674;48.048;8.306;2022-12-07T07:25:22;6.60;;;2.15;;
75090;SDS011;63674;48.048;8.306;2022-12-07T07:27:51;6.68;;;2.08;;
75090;SDS011;63674;48.048;8.306;2022-12-07T07:30:20;7.18;;;2.40;;
75090;SDS011;63674;48.048;8.306;2022-12-07T07:32:49;6.53;;;2.10;;
75090;SDS011;63674;48.048;8.306;2022-12-07T07:35:19;6.38;;;1.85;;
75090;SDS011;63674;48.048;8.306;2022-12-07T07:37:48;6.25;;;2.33;;
75090;SDS011;63674;48.048;8.306;2022-12-07T07:40:17;6.25;;;1.90;;
75090;SDS011;63674;48.048;8.306;2022-12-07T07:42:46;6.55;;;2.05;;
75090;SDS011;63674;48.048;8.306;2022-12-07T07:45:15;10.55;;;2.20;;
75090;SDS011;63674;48.048;8.306;2022-12-07T07:47:44;5.95;;;1.98;;
75090;SDS011;63674;48.048;8.306;2022-12-07T07:50:13;7.28;;;2.75;;
75090;SDS011;63674;48.048;8.306;2022-12-07T07:52:44;6.78;;;2.65;;
75090;SDS011;63674;48.048;8.306;2022-12-07T07:55:14;8.60;;;3.10;;
75090;SDS011;63674;48.048;8.306;2022-12-07T07:57:43;7.97;;;2.60;;
75090;SDS011;63674;48.048;8.306;2022-12-07T08:00:20;6.93;;;2.67;;
75090;SDS011;63674;48.048;8.306;2022-12-07T08:02:49;6.40;;;2.42;;
75090;SDS011;63674;48.048;8.306;2022-12-07T08:05:18;6.90;;;2.45;;
75090;SDS011;63674;48.048;8.306;2022-12-07T08:07:48;6.40;;;2.72;;
75090;SDS011;63674;48.048;8.306;2022-12-07T08:10:17;5.85;;;2.10;;
75090;SDS011;63674;48.048;8.306;2022-12-07T08:12:45;7.03;;;2.05;;
75090;SDS011;63674;48.048;8.306;2022-12-07T08:15:31;6.30;;;2.30;;
75090;SDS011;63674;48.048;8.306;2022-12-07T08:18:00;7.13;;;1.95;;
75090;SDS011;63674;48.048;8.306;2022-12-07T08:20:29;5.97;;;1.77;;
75090;SDS011;63674;48.048;8.306;2022-12-07T08:23:00;5.63;;;1.92;;
75090;SDS011;63674;48.048;8.306;2022-12-07T08:25:30;5.78;;;1.90;;
75090;SDS011;63674;48.048;8.306;2022-12-07T08:28:00;7.15;;;2.42;;
75090;SDS011;63674;48.048;8.306;2022-12-07T08:30:29;6.18;;;2.15;;
75090;SDS011;63674;48.048;8.306;2022-12-07T08:32:58;7.57;;;2.35;;
75090;SDS011;63674;48.048;8.306;2022-12-07T08:35:27;6.93;;;1.75;;
75090;SDS011;63674;48.048;8.306;2022-12-07T08:37:56;6.47;;;2.10;;
75090;SDS011;63674;48.048;8.306;2022-12-07T08:40:26;6.18;;;2.13;;
75090;SDS011;63674;48.048;8.306;2022-12-07T08:42:54;6.53;;;2.13;;
75090;SDS011;63674;48.048;8.306;2022-12-07T08:45:23;6.65;;;2.33;;
75090;SDS011;63674;48.048;8.306;2022-12-07T08:47:53;6.47;;;2.45;;
75090;SDS011;63674;48.048;8.306;2022-12-07T08:50:27;5.70;;;1.85;;
75090;SDS011;63674;48.048;8.306;2022-12-07T08:52:57;6.10;;;2.30;;
75090;SDS011;63674;48.048;8.306;2022-12-07T08:55:28;7.82;;;2.30;;
75090;SDS011;63674;48.048;8.306;2022-12-07T08:57:57;6.72;;;2.33;;
75090;SDS011;63674;48.048;8.306;2022-12-07T09:00:26;6.97;;;2.33;;
75090;SDS011;63674;48.048;8.306;2022-12-07T09:02:55;7.10;;;2.50;;
75090;SDS011;63674;48.048;8.306;2022-12-07T09:05:24;6.18;;;2.17;;
75090;SDS011;63674;48.048;8.306;2022-12-07T09:07:54;6.07;;;2.05;;
75090;SDS011;63674;48.048;8.306;2022-12-07T09:10:29;6.68;;;2.40;;
75090;SDS011;63674;48.048;8.306;2022-12-07T09:12:58;6.00;;;2.03;;
75090;SDS011;63674;48.048;8.306;2022-12-07T09:15:27;6.13;;;2.20;;
75090;SDS011;63674;48.048;8.306;2022-12-07T09:17:57;5.85;;;1.90;;
75090;SDS011;63674;48.048;8.306;2022-12-07T09:20:26;6.53;;;2.22;;
75090;SDS011;63674;48.048;8.306;2022-12-07T09:22:55;5.80;;;1.98;;
75090;SDS011;63674;48.048;8.306;2022-12-07T09:25:23;5.72;;;2.03;;
75090;SDS011;63674;48.048;8.306;2022-12-07T09:27:57;6.60;;;2.80;;
75090;SDS011;63674;48.048;8.306;2022-12-07T09:30:27;5.28;;;1.80;;
75090;SDS011;63674;48.048;8.306;2022-12-07T09:32:56;6.35;;;2.08;;
75090;SDS011;63674;48.048;8.306;2022-12-07T09:35:25;5.50;;;1.88;;
75090;SDS011;63674;48.048;8.306;2022-12-07T09:37:54;5.72;;;2.03;;
75090;SDS011;63674;48.048;8.306;2022-12-07T09:40:23;5.50;;;1.85;;
75090;SDS011;63674;48.048;8.306;2022-12-07T09:42:52;5.70;;;1.90;;
75090;SDS011;63674;48.048;8.306;2022-12-07T09:45:25;4.97;;;1.60;;
75090;SDS011;63674;48.048;8.306;2022-12-07T09:48:02;5.13;;;1.65;;
75090;SDS011;63674;48.048;8.306;2022-12-07T09:50:31;5.22;;;1.80;;
75090;SDS011;63674;48.048;8.306;2022-12-07T09:53:03;6.07;;;1.83;;
75090;SDS011;63674;48.048;8.306;2022-12-07T09:55:36;5.55;;;1.83;;
75090;SDS011;63674;48.048;8.306;2022-12-07T09:58:06;6.05;;;1.77;;
75090;SDS011;63674;48.048;8.306;2022-12-07T10:00:41;5.80;;;2.00;;
75090;SDS011;63674;48.048;8.306;2022-12-07T10:03:09;7.25;;;2.70;;
75090;SDS011;63674;48.048;8.306;2022-12-07T10:05:40;6.38;;;2.22;;
75090;SDS011;63674;48.048;8.306;2022-12-07T10:08:12;5.78;;;2.03;;
75090;SDS011;63674;48.048;8.306;2022-12-07T10:10:43;5.25;;;1.75;;
75090;SDS011;63674;48.048;8.306;2022-12-07T10:13:13;5.68;;;1.67;;
75090;SDS011;63674;48.048;8.306;2022-12-07T10:15:49;6.30;;;1.90;;
75090;SDS011;63674;48.048;8.306;2022-12-07T10:18:27;6.25;;;1.70;;
75090;SDS011;63674;48.048;8.306;2022-12-07T10:21:06;6.95;;;1.73;;
75090;SDS011;63674;48.048;8.306;2022-12-07T10:23:57;6.93;;;2.55;;
75090;SDS011;63674;48.048;8.306;2022-12-07T10:26:30;6.10;;;1.90;;
75090;SDS011;63674;48.048;8.306;2022-12-07T10:29:01;5.22;;;2.00;;
75090;SDS011;63674;48.048;8.306;2022-12-07T10:31:44;5.40;;;1.45;;
75090;SDS011;63674;48.048;8.306;2022-12-07T10:34:20;6.22;;;2.03;;
75090;SDS011;63674;48.048;8.306;2022-12-07T10:36:51;5.25;;;1.80;;
75090;SDS011;63674;48.048;8.306;2022-12-07T10:39:21;6.28;;;2.00;;
75090;SDS011;63674;48.048;8.306;2022-12-07T10:41:55;5.60;;;2.00;;
75090;SDS011;63674;48.048;8.306;2022-12-07T10:44:26;5.60;;;2.15;;
75090;SDS011;63674;48.048;8.306;2022-12-07T10:47:07;5.75;;;2.00;;
75090;SDS011;63674;48.048;8.306;2022-12-07T10:50:01;8.75;;;2.83;;
75090;SDS011;63674;48.048;8.306;2022-12-07T10:53:17;4.85;;;1.63;;
75090;SDS011;63674;48.048;8.306;2022-12-07T10:59:09;5.32;;;1.48;;
75090;SDS011;63674;48.048;8.306;2022-12-07T11:02:01;4.68;;;1.48;;
75090;SDS011;63674;48.048;8.306;2022-12-07T11:04:55;5.07;;;1.23;;
75090;SDS011;63674;48.048;8.306;2022-12-07T11:07:35;4.60;;;1.50;;
75090;SDS011;63674;48.048;8.306;2022-12-07T11:10:19;4.30;;;1.30;;
75090;SDS011;63674;48.048;8.306;2022-12-07T11:13:04;4.63;;;1.10;;
75090;SDS011;63674;48.048;8.306;2022-12-07T11:16:01;5.65;;;1.40;;
75090;SDS011;63674;48.048;8.306;2022-12-07T11:18:45;4.55;;;1.40;;
75090;SDS011;63674;48.048;8.306;2022-12-07T11:21:30;6.18;;;1.33;;
75090;SDS011;63674;48.048;8.306;2022-12-07T11:24:03;4.38;;;1.30;;
75090;SDS011;63674;48.048;8.306;2022-12-07T11:26:42;4.90;;;1.65;;
75090;SDS011;63674;48.048;8.306;2022-12-07T11:29:34;4.65;;;1.50;;
75090;SDS011;63674;48.048;8.306;2022-12-07T11:32:45;4.68;;;1.35;;
75090;SDS011;63674;48.048;8.306;2022-12-07T11:35:34;4.50;;;1.20;;
75090;SDS011;63674;48.048;8.306;2022-12-07T11:38:37;5.57;;;1.20;;
75090;SDS011;63674;48.048;8.306;2022-12-07T11:41:12;4.82;;;1.40;;
75090;SDS011;63674;48.048;8.306;2022-12-07T11:43:47;5.38;;;1.40;;
75090;SDS011;63674;48.048;8.306;2022-12-07T11:46:24;4.05;;;1.10;;
75090;SDS011;63674;48.048;8.306;2022-12-07T11:48:58;3.78;;;0.95;;
75090;SDS011;63674;48.048;8.306;2022-12-07T11:51:37;5.72;;;1.85;;
75090;SDS011;63674;48.048;8.306;2022-12-07T11:54:11;4.78;;;1.58;;
75090;SDS011;63674;48.048;8.306;2022-12-07T11:56:45;6.30;;;2.45;;
75090;SDS011;63674;48.048;8.306;2022-12-07T11:59:19;5.22;;;1.70;;
75090;SDS011;63674;48.048;8.306;2022-12-07T12:01:58;4.80;;;1.20;;
75090;SDS011;63674;48.048;8.306;2022-12-07T12:04:40;4.45;;;1.50;;
75090;SDS011;63674;48.048;8.306;2022-12-07T12:07:21;4.45;;;1.38;;
75090;SDS011;63674;48.048;8.306;2022-12-07T12:10:17;5.10;;;1.60;;
75090;SDS011;63674;48.048;8.306;2022-12-07T12:12:59;3.90;;;1.20;;
75090;SDS011;63674;48.048;8.306;2022-12-07T12:16:21;5.25;;;1.60;;
75090;SDS011;63674;48.048;8.306;2022-12-07T12:19:23;6.43;;;2.33;;
75090;SDS011;63674;48.048;8.306;2022-12-07T12:22:02;5.30;;;1.77;;
75090;SDS011;63674;48.048;8.306;2022-12-07T12:24:42;6.82;;;1.90;;
75090;SDS011;63674;48.048;8.306;2022-12-07T12:27:16;6.65;;;2.30;;
75090;SDS011;63674;48.048;8.306;2022-12-07T12:29:52;4.32;;;1.40;;
75090;SDS011;63674;48.048;8.306;2022-12-07T12:32:23;8.25;;;1.40;;
75090;SDS011;63674;48.048;8.306;2022-12-07T12:37:55;6.22;;;1.30;;
75090;SDS011;63674;48.048;8.306;2022-12-07T12:41:02;5.53;;;1.63;;
75090;SDS011;63674;48.048;8.306;2022-12-07T12:43:41;5.75;;;2.20;;
75090;SDS011;63674;48.048;8.306;2022-12-07T12:52:58;7.72;;;3.38;;
75090;SDS011;63674;48.048;8.306;2022-12-07T12:59:19;4.38;;;1.33;;
75090;SDS011;63674;48.048;8.306;2022-12-07T13:01:54;4.60;;;1.40;;
75090;SDS011;63674;48.048;8.306;2022-12-07T13:04:39;3.88;;;1.10;;
75090;SDS011;63674;48.048;8.306;2022-12-07T13:10:40;4.35;;;1.17;;
75090;SDS011;63674;48.048;8.306;2022-12-07T13:28:14;4.80;;;1.50;;
75090;SDS011;63674;48.048;8.306;2022-12-07T13:30:47;5.63;;;1.30;;
75090;SDS011;63674;48.048;8.306;2022-12-07T13:33:28;4.85;;;1.70;;
75090;SDS011;63674;48.048;8.306;2022-12-07T13:35:58;6.47;;;1.67;;
75090;SDS011;63674;48.048;8.306;2022-12-07T13:38:28;8.57;;;2.08;;
75090;SDS011;63674;48.048;8.306;2022-12-07T13:41:04;6.75;;;2.00;;
75090;SDS011;63674;48.048;8.306;2022-12-07T13:43:45;7.20;;;1.60;;
75090;SDS011;63674;48.048;8.306;2022-12-07T13:46:20;12.40;;;3.58;;
75090;SDS011;63674;48.048;8.306;2022-12-07T13:48:57;17.23;;;6.50;;
75090;SDS011;63674;48.048;8.306;2022-12-07T13:51:27;8.55;;;3.22;;
75090;SDS011;63674;48.048;8.306;2022-12-07T13:54:08;5.72;;;1.70;;
75090;SDS011;63674;48.048;8.306;2022-12-07T13:56:39;5.45;;;1.75;;
75090;SDS011;63674;48.048;8.306;2022-12-07T13:59:16;5.40;;;1.75;;
75090;SDS011;63674;48.048;8.306;2022-12-07T14:01:49;5.15;;;1.73;;
75090;SDS011;63674;48.048;8.306;2022-12-07T14:04:27;4.55;;;1.35;;
75090;SDS011;63674;48.048;8.306;2022-12-07T14:07:00;5.20;;;1.65;;
75090;SDS011;63674;48.048;8.306;2022-12-07T14:09:53;4.68;;;1.30;;
75090;SDS011;63674;48.048;8.306;2022-12-07T14:12:24;4.30;;;1.58;;
75090;SDS011;63674;48.048;8.306;2022-12-07T14:14:56;6.03;;;1.35;;
75090;SDS011;63674;48.048;8.306;2022-12-07T14:17:28;4.38;;;1.33;;
75090;SDS011;63674;48.048;8.306;2022-12-07T14:19:57;4.68;;;1.30;;
75090;SDS011;63674;48.048;8.306;2022-12-07T14:22:28;4.43;;;1.33;;
75090;SDS011;63674;48.048;8.306;2022-12-07T14:27:51;5.20;;;1.55;;
75090;SDS011;63674;48.048;8.306;2022-12-07T14:30:25;4.78;;;1.40;;
75090;SDS011;63674;48.048;8.306;2022-12-07T14:32:58;4.75;;;1.10;;
75090;SDS011;63674;48.048;8.306;2022-12-07T14:35:29;4.32;;;0.90;;
75090;SDS011;63674;48.048;8.306;2022-12-07T14:37:59;4.03;;;1.10;;
75090;SDS011;63674;48.048;8.306;2022-12-07T14:40:29;4.72;;;1.17;;
75090;SDS011;63674;48.048;8.306;2022-12-07T14:42:59;3.80;;;1.13;;
75090;SDS011;63674;48.048;8.306;2022-12-07T14:45:30;3.67;;;1.02;;
75090;SDS011;63674;48.048;8.306;2022-12-07T14:48:00;3.90;;;0.80;;
75090;SDS011;63674;48.048;8.306;2022-12-07T14:50:49;4.40;;;1.17;;
75090;SDS011;63674;48.048;8.306;2022-12-07T14:53:41;4.28;;;1.25;;
75090;SDS011;63674;48.048;8.306;2022-12-07T14:56:20;3.95;;;1.02;;
75090;SDS011;63674;48.048;8.306;2022-12-07T14:58:49;4.75;;;1.13;;
75090;SDS011;63674;48.048;8.306;2022-12-07T15:01:18;4.40;;;1.02;;
75090;SDS011;63674;48.048;8.306;2022-12-07T15:03:48;4.35;;;1.08;;
75090;SDS011;63674;48.048;8.306;2022-12-07T15:06:17;4.20;;;1.20;;
75090;SDS011;63674;48.048;8.306;2022-12-07T15:08:46;3.85;;;1.08;;
75090;SDS011;63674;48.048;8.306;2022-12-07T15:11:16;4.10;;;1.10;;
75090;SDS011;63674;48.048;8.306;2022-12-07T15:13:45;4.60;;;1.00;;
75090;SDS011;63674;48.048;8.306;2022-12-07T15:16:32;3.97;;;1.20;;
75090;SDS011;63674;48.048;8.306;2022-12-07T15:19:22;4.15;;;1.20;;
75090;SDS011;63674;48.048;8.306;2022-12-07T15:21:55;4.25;;;1.20;;
75090;SDS011;63674;48.048;8.306;2022-12-07T15:24:23;4.88;;;1.08;;
75090;SDS011;63674;48.048;8.306;2022-12-07T15:26:53;4.75;;;1.00;;
75090;SDS011;63674;48.048;8.306;2022-12-07T15:29:22;4.10;;;1.10;;
75090;SDS011;63674;48.048;8.306;2022-12-07T15:31:51;4.18;;;1.00;;
75090;SDS011;63674;48.048;8.306;2022-12-07T15:34:24;4.93;;;1.13;;
75090;SDS011;63674;48.048;8.306;2022-12-07T15:37:05;4.50;;;1.30;;
75090;SDS011;63674;48.048;8.306;2022-12-07T15:39:34;5.75;;;1.20;;
75090;SDS011;63674;48.048;8.306;2022-12-07T15:42:03;4.57;;;1.17;;
75090;SDS011;63674;48.048;8.306;2022-12-07T15:44:32;4.35;;;1.20;;
75090;SDS011;63674;48.048;8.306;2022-12-07T15:47:18;4.43;;;1.20;;
75090;SDS011;63674;48.048;8.306;2022-12-07T15:49:48;4.55;;;1.17;;
75090;SDS011;63674;48.048;8.306;2022-12-07T15:52:17;4.15;;;1.20;;
75090;SDS011;63674;48.048;8.306;2022-12-07T15:54:46;4.28;;;1.30;;
75090;SDS011;63674;48.048;8.306;2022-12-07T15:57:15;4.30;;;1.23;;
75090;SDS011;63674;48.048;8.306;2022-12-07T15:59:50;4.50;;;1.38;;
75090;SDS011;63674;48.048;8.306;2022-12-07T16:02:20;4.20;;;1.20;;
75090;SDS011;63674;48.048;8.306;2022-12-07T16:04:51;4.30;;;1.30;;
75090;SDS011;63674;48.048;8.306;2022-12-07T16:07:20;4.47;;;1.30;;